Crestline, Alabama
Current Conditions -  °F | °C
As of 3:53 PM on Friday 31 Oct 2014 (Local Time) from KBHM Reporting Station
Broken Clouds Broken Clouds  
Wind Chill: 62°   Ceiling: 7000
Heat Index: 62°   Visibility: 10mi
Dew Point: 41°   Wind: 12mph
Humidity: 46%   Direction: 320°NW
Pressure: 29.98"   Gusts: 22mph
Location:  33.5082°N, 86.7399°W
Report Text: KBHM 312053Z 32010G19KT 10SM FEW050 BKN070 17/05 A2998 RMK AO2 SLP149 T01670050 55004
Loading
Personal Weather Stations






























Interactive Weather Map New forecast layout! Learn more

10-Day Weather Forecast

Advertisements
Track Severe Weather on mobile